You are listening to:
KPWT CTAF - Bremerton, Washington, United States

KPWT 061614Z AUTO 04006KT 3SM BR OVC002 12/12 A3018 RMK AO2

If stream doesn't start automatically press the play button
If stream stops then reload player then press play